createdAt,value
2022-08-12T00:02:24.858Z,98325.94
2022-08-12T00:06:04.280Z,98320.88
2022-08-12T00:09:26.670Z,98324.31
2022-08-12T00:12:47.106Z,98323.63
2022-08-12T00:16:09.071Z,98322.44
2022-08-12T00:19:29.501Z,98325.63
2022-08-12T00:22:58.692Z,98314.91
2022-08-12T00:26:22.562Z,98317.91
2022-08-12T00:29:47.808Z,98313.50
2022-08-12T00:33:08.801Z,98314.50
2022-08-12T00:36:34.939Z,98312.38
2022-08-12T00:39:57.277Z,98311.72
2022-08-12T00:42:59.818Z,98311.06
2022-08-12T00:46:20.352Z,98315.69
2022-08-12T00:49:24.164Z,98308.41
2022-08-12T00:52:26.147Z,98307.38
2022-08-12T00:55:28.018Z,98304.44
2022-08-12T00:58:30.884Z,98302.47
2022-08-12T01:02:11.472Z,98295.34
2022-08-12T01:05:20.890Z,98297.84
2022-08-12T01:08:41.292Z,98298.53
2022-08-12T01:11:43.143Z,98296.19
2022-08-12T01:14:47.022Z,98294.91
2022-08-12T01:17:49.095Z,98288.63
2022-08-12T01:21:09.249Z,98283.97
2022-08-12T01:24:31.287Z,98288.28
2022-08-12T01:27:34.930Z,98290.91
2022-08-12T01:30:36.923Z,98287.28
2022-08-12T01:34:03.087Z,98291.94
2022-08-12T01:37:07.751Z,98287.94
2022-08-12T01:40:35.889Z,98295.53
2022-08-12T01:43:34.253Z,98285.94
2022-08-12T01:46:42.817Z,98284.16
2022-08-12T01:50:13.599Z,98282.38
2022-08-12T01:53:20.785Z,98276.75
2022-08-12T01:56:25.169Z,98263.88
2022-08-12T01:59:59.849Z,98268.50
2022-08-12T02:03:17.293Z,98272.44
2022-08-12T02:06:41.642Z,98273.78
2022-08-12T02:10:50.289Z,98274.09
2022-08-12T02:13:48.839Z,98271.00
2022-08-12T02:16:59.432Z,98270.31
2022-08-12T02:20:08.173Z,98269.81
2022-08-12T02:23:11.348Z,98266.50
2022-08-12T02:26:16.041Z,98263.88
2022-08-12T02:29:19.114Z,98264.19
2022-08-12T02:32:21.275Z,98260.56
2022-08-12T02:35:26.629Z,98261.72
2022-08-12T02:38:28.926Z,98255.63
2022-08-12T02:41:32.758Z,98265.03
2022-08-12T02:44:38.313Z,98260.59
2022-08-12T02:47:59.580Z,98259.75
2022-08-12T02:51:06.650Z,98270.16
2022-08-12T02:54:13.432Z,98265.06
2022-08-12T02:57:20.748Z,98260.28
2022-08-12T03:00:23.277Z,98259.94
2022-08-12T03:03:27.919Z,98257.63
2022-08-12T03:06:38.045Z,98261.28
2022-08-12T03:10:04.032Z,98262.25
2022-08-12T03:13:08.908Z,98263.59
2022-08-12T03:16:10.873Z,98260.28
2022-08-12T03:19:12.693Z,98257.28
2022-08-12T03:22:15.627Z,98254.00
2022-08-12T03:25:26.623Z,98251.34
2022-08-12T03:28:49.221Z,98255.31
2022-08-12T03:31:54.092Z,98251.03
2022-08-12T03:34:57.373Z,98253.00
2022-08-12T03:38:02.137Z,98252.00
2022-08-12T03:41:34.225Z,98260.94
2022-08-12T03:45:01.353Z,98261.09
2022-08-12T03:48:30.882Z,98254.50
2022-08-12T03:51:50.879Z,98251.03
2022-08-12T03:55:11.841Z,98250.38
2022-08-12T03:58:32.628Z,98262.91
2022-08-12T04:01:40.645Z,98260.47
2022-08-12T04:04:45.709Z,98264.06
2022-08-12T04:07:58.117Z,98266.88
2022-08-12T04:16:51.831Z,98265.88
2022-08-12T04:20:43.610Z,98268.84
2022-08-12T04:23:48.506Z,98266.72
2022-08-12T04:26:50.839Z,98267.66
2022-08-12T04:30:29.338Z,98271.13
2022-08-12T04:33:15.062Z,98268.97
2022-08-12T04:36:17.018Z,98274.66
2022-08-12T04:39:19.059Z,98271.09
2022-08-12T04:42:21.438Z,98280.75
2022-08-12T04:45:23.253Z,98286.72
2022-08-12T04:48:25.109Z,98291.91
2022-08-12T04:51:28.432Z,98294.84
2022-08-12T04:54:31.318Z,98287.06
2022-08-12T04:57:33.100Z,98299.72
2022-08-12T05:00:35.813Z,98303.88
2022-08-12T05:03:46.045Z,98303.00
2022-08-12T05:06:48.815Z,98297.13
2022-08-12T05:10:00.138Z,98298.59
2022-08-12T05:13:08.128Z,98299.78
2022-08-12T05:16:10.189Z,98300.84
2022-08-12T05:19:18.638Z,98300.41
2022-08-12T05:22:26.181Z,98291.19
2022-08-12T05:25:28.189Z,98294.97
2022-08-12T05:37:05.257Z,98289.66
2022-08-12T05:40:11.276Z,98284.06
2022-08-12T05:43:13.549Z,98281.56
2022-08-12T05:46:15.690Z,98297.13
2022-08-12T05:49:17.629Z,98291.34
2022-08-12T05:52:19.531Z,98285.81
2022-08-12T05:55:26.939Z,98291.34
2022-08-12T05:58:39.935Z,98298.56
2022-08-12T06:02:11.458Z,98298.19
2022-08-12T06:05:07.684Z,98304.25
2022-08-12T06:08:09.642Z,98299.22
2022-08-12T06:11:11.399Z,98310.53
2022-08-12T06:14:13.795Z,98323.19
2022-08-12T06:17:18.767Z,98308.22
2022-08-12T06:20:26.481Z,98318.53
2022-08-12T06:23:31.764Z,98308.81
2022-08-12T06:26:34.604Z,98316.69
2022-08-12T06:30:10.071Z,98313.59
2022-08-12T06:33:04.162Z,98317.03
2022-08-12T06:36:22.776Z,98318.69
2022-08-12T06:39:24.910Z,98314.66
2022-08-12T06:42:45.205Z,98314.00
2022-08-12T06:45:49.323Z,98316.69
2022-08-12T06:48:55.741Z,98309.94
2022-08-12T06:51:57.630Z,98318.16
2022-08-12T06:55:00.075Z,98316.97
2022-08-12T06:58:07.594Z,98320.00
2022-08-12T07:01:12.521Z,98323.72
2022-08-12T07:04:35.789Z,98325.13
2022-08-12T07:07:39.180Z,98330.03
2022-08-12T07:10:53.588Z,98317.06
2022-08-12T07:14:11.153Z,98321.94
2022-08-12T07:17:14.994Z,98324.22
2022-08-12T07:20:42.634Z,98323.31
2022-08-12T07:23:41.763Z,98317.50
2022-08-12T07:26:47.133Z,98329.88
2022-08-12T07:29:57.958Z,98321.25
2022-08-12T07:33:13.221Z,98326.44
2022-08-12T07:36:15.485Z,98328.09
2022-08-12T07:39:17.662Z,98324.03
2022-08-12T07:42:20.711Z,98313.16
2022-08-12T07:45:22.808Z,98310.34
2022-08-12T07:48:25.122Z,98310.28
2022-08-12T07:51:28.432Z,98316.19
2022-08-12T07:54:30.473Z,98308.59
2022-08-12T07:58:26.229Z,98310.47
2022-08-12T08:01:54.170Z,98311.19
2022-08-12T08:04:56.220Z,98306.06
2022-08-12T08:11:46.425Z,98299.19
2022-08-12T08:14:50.236Z,98310.38
2022-08-12T08:18:04.340Z,98309.44
2022-08-12T08:21:06.704Z,98312.25
2022-08-12T08:24:16.296Z,98307.34
2022-08-12T08:27:18.144Z,98313.56
2022-08-12T08:30:20.037Z,98296.41
2022-08-12T08:33:23.729Z,98301.78
2022-08-12T08:36:45.366Z,98296.81
2022-08-12T08:39:47.425Z,98298.66
2022-08-12T08:42:51.393Z,98303.06
2022-08-12T08:45:55.927Z,98298.66
2022-08-12T08:48:59.802Z,98302.97
2022-08-12T08:52:04.121Z,98306.22
2022-08-12T08:55:06.513Z,98311.47
2022-08-12T08:58:09.325Z,98303.50
2022-08-12T09:01:11.330Z,98309.72
2022-08-12T09:05:14.488Z,98308.72
2022-08-12T09:07:58.318Z,98305.41
2022-08-12T09:12:11.626Z,98298.81
2022-08-12T09:14:52.280Z,98299.47
2022-08-12T09:17:57.073Z,98309.84
2022-08-12T09:20:59.116Z,98297.50
2022-08-12T09:24:06.015Z,98295.09
2022-08-12T09:27:16.117Z,98292.72
2022-08-12T09:30:18.482Z,98285.47
2022-08-12T09:34:28.217Z,98296.88
2022-08-12T09:37:19.899Z,98288.72
2022-08-12T09:41:01.505Z,98290.34
2022-08-12T09:44:06.831Z,98290.34
2022-08-12T09:47:29.599Z,98281.75
2022-08-12T09:50:36.923Z,98281.28
2022-08-12T09:53:40.139Z,98273.16
2022-08-12T09:57:02.706Z,98269.50
2022-08-12T10:00:16.222Z,98266.59
2022-08-12T10:03:32.108Z,98256.31
2022-08-12T10:06:36.321Z,98267.66
2022-08-12T10:09:57.488Z,98256.72
2022-08-12T10:13:34.397Z,98255.53
2022-08-12T10:16:44.137Z,98246.59
2022-08-12T10:19:52.246Z,98238.31
2022-08-12T10:22:58.779Z,98250.50
2022-08-12T10:26:36.911Z,98246.50
2022-08-12T10:30:11.907Z,98248.16
2022-08-12T10:33:18.340Z,98244.03
2022-08-12T10:36:21.354Z,98244.91
2022-08-12T10:40:01.577Z,98244.75
2022-08-12T10:43:20.815Z,98246.91
2022-08-12T10:46:24.175Z,98243.06
2022-08-12T10:50:05.049Z,98245.72
2022-08-12T10:52:56.658Z,98234.13
2022-08-12T10:55:59.458Z,98233.41
2022-08-12T10:59:05.376Z,98238.66
2022-08-12T11:04:27.371Z,98244.66
2022-08-12T11:07:06.416Z,98232.91
2022-08-12T11:08:57.298Z,98234.97
2022-08-12T11:12:34.605Z,98241.78
2022-08-12T11:16:04.210Z,98225.88
2022-08-12T11:18:55.346Z,98226.28
2022-08-12T11:22:01.398Z,98227.06
2022-08-12T11:25:10.243Z,98231.97
2022-08-12T11:28:14.277Z,98227.91
2022-08-12T11:31:16.519Z,98219.78
2022-08-12T11:34:53.140Z,98222.81
2022-08-12T11:37:58.084Z,98223.03
2022-08-12T11:41:05.179Z,98218.28
2022-08-12T11:44:33.374Z,98214.44
2022-08-12T11:47:29.140Z,98213.41
2022-08-12T11:50:32.757Z,98208.47
2022-08-12T11:53:57.475Z,98210.16
2022-08-12T11:57:02.189Z,98211.31
2022-08-12T12:03:44.024Z,98208.38
2022-08-12T12:06:52.977Z,98202.13
2022-08-12T12:09:55.868Z,98206.53
2022-08-12T12:13:00.766Z,98194.16
2022-08-12T12:16:10.051Z,98192.59
2022-08-12T12:19:12.453Z,98190.34
2022-08-12T12:22:15.793Z,98187.63
2022-08-12T12:26:06.978Z,98173.81
2022-08-12T12:28:54.360Z,98169.28
2022-08-12T12:32:10.312Z,98175.19
2022-08-12T12:36:06.220Z,98162.59
2022-08-12T12:38:39.035Z,98156.53
2022-08-12T12:42:45.490Z,98155.47
2022-08-12T12:45:19.029Z,98158.03
2022-08-12T12:48:28.274Z,98157.75
2022-08-12T12:51:48.728Z,98148.44
2022-08-12T12:54:56.010Z,98138.69
2022-08-12T12:58:00.930Z,98142.34
2022-08-12T13:01:26.548Z,98137.50
2022-08-12T13:04:30.308Z,98140.41
2022-08-12T13:07:49.426Z,98137.25
2022-08-12T13:11:08.288Z,98132.56
2022-08-12T13:14:28.128Z,98138.28
2022-08-12T13:18:02.201Z,98126.91
2022-08-12T13:20:59.538Z,98128.50
2022-08-12T13:24:09.690Z,98126.03
2022-08-12T13:27:12.569Z,98125.16
2022-08-12T13:30:23.832Z,98131.78
2022-08-12T13:34:32.656Z,98124.44
2022-08-12T13:37:08.990Z,98122.38
2022-08-12T13:40:12.885Z,98125.47
2022-08-12T13:43:40.645Z,98127.91
2022-08-12T13:48:11.690Z,98126.06
2022-08-12T13:51:24.510Z,98117.06
2022-08-12T13:55:06.525Z,98113.88
2022-08-12T13:58:37.751Z,98109.34
2022-08-12T14:01:53.180Z,98119.75
2022-08-12T14:05:31.077Z,98117.91
2022-08-12T14:08:35.592Z,98114.66
2022-08-12T14:11:38.988Z,98107.88
2022-08-12T14:14:49.947Z,98108.97
2022-08-12T14:17:52.353Z,98124.88
2022-08-12T14:21:02.185Z,98124.53
2022-08-12T14:24:11.218Z,98123.63
2022-08-12T14:27:14.020Z,98112.06
2022-08-12T14:30:37.430Z,98120.13
2022-08-12T14:33:50.266Z,98120.81
2022-08-12T14:36:57.800Z,98111.38
2022-08-12T14:40:01.261Z,98115.63
2022-08-12T14:43:06.315Z,98110.53
2022-08-12T14:46:19.305Z,98103.81
2022-08-12T14:50:00.986Z,98099.25
2022-08-12T14:55:13.870Z,98094.09
2022-08-12T14:59:57.829Z,98093.75
2022-08-12T15:03:04.114Z,98077.88
2022-08-12T15:06:43.818Z,98084.88
2022-08-12T15:09:32.640Z,98075.41
2022-08-12T15:12:35.344Z,98071.91
2022-08-12T15:15:46.032Z,98079.72
2022-08-12T15:18:55.324Z,98078.66
2022-08-12T15:22:35.489Z,98079.19
2022-08-12T15:25:28.721Z,98072.16
2022-08-12T15:28:33.825Z,98068.63
2022-08-12T15:31:54.268Z,98061.84
2022-08-12T15:35:01.208Z,98064.28
2022-08-12T15:38:12.952Z,98065.22
2022-08-12T15:41:17.719Z,98061.84
2022-08-12T15:44:37.906Z,98054.84
2022-08-12T15:47:48.310Z,98045.34
2022-08-12T15:50:55.753Z,98054.84
2022-08-12T15:54:33.667Z,98052.53
2022-08-12T15:57:33.528Z,98045.03
2022-08-12T16:00:44.712Z,98049.44
2022-08-12T16:04:00.466Z,98038.91
2022-08-12T16:07:06.123Z,98037.28
2022-08-12T16:10:11.969Z,98048.94
2022-08-12T16:13:25.271Z,98039.69
2022-08-12T16:16:37.011Z,98051.03
2022-08-12T16:20:03.272Z,98042.91
2022-08-12T16:23:26.584Z,98047.69
2022-08-12T16:26:35.022Z,98041.59
2022-08-12T16:29:52.392Z,98042.94
2022-08-12T16:32:57.591Z,98050.28
2022-08-12T16:36:01.880Z,98040.63
2022-08-12T16:39:04.824Z,98036.41
2022-08-12T16:42:07.092Z,98045.44
2022-08-12T16:45:14.054Z,98043.72
2022-08-12T16:48:35.427Z,98043.13
2022-08-12T16:51:40.548Z,98035.84
2022-08-12T16:54:44.810Z,98033.44
2022-08-12T16:57:49.046Z,98027.41
2022-08-12T17:00:51.999Z,98021.47
2022-08-12T17:04:09.061Z,98020.53
2022-08-12T17:07:17.048Z,98020.38
2022-08-12T17:10:36.317Z,98014.56
2022-08-12T17:13:53.273Z,98020.84
2022-08-12T17:16:56.011Z,98027.03
2022-08-12T17:20:35.157Z,98021.66
2022-08-12T17:23:48.517Z,98025.25
2022-08-12T17:26:56.374Z,98032.91
2022-08-12T17:30:04.967Z,98024.09
2022-08-12T17:33:08.543Z,98023.84
2022-08-12T17:36:10.961Z,98030.84
2022-08-12T17:39:13.045Z,98025.00
2022-08-12T17:42:33.010Z,98031.44
2022-08-12T17:45:42.968Z,98033.13
2022-08-12T17:48:57.738Z,98022.44
2022-08-12T17:52:02.593Z,98024.31
2022-08-12T17:55:20.098Z,98025.19
2022-08-12T17:58:38.250Z,98021.00
2022-08-12T18:01:46.152Z,98024.25
2022-08-12T18:05:09.797Z,98019.00
2022-08-12T18:08:15.870Z,98021.91
2022-08-12T18:11:55.030Z,98020.56
2022-08-12T18:15:08.792Z,98019.66
2022-08-12T18:18:19.668Z,98022.38
2022-08-12T18:22:01.831Z,98022.50
2022-08-12T18:25:04.986Z,98025.88
2022-08-12T18:28:16.947Z,98026.66
2022-08-12T18:31:44.167Z,98025.75
2022-08-12T18:34:56.319Z,98038.09
2022-08-12T18:38:09.465Z,98036.69
2022-08-12T18:41:34.407Z,98033.53
2022-08-12T18:44:40.273Z,98046.56
2022-08-12T18:47:50.161Z,98048.06
2022-08-12T18:51:11.325Z,98052.63
2022-08-12T18:54:29.209Z,98049.16
2022-08-12T18:58:06.405Z,98060.16
2022-08-12T19:00:56.870Z,98065.00
2022-08-12T19:04:12.472Z,98059.97
2022-08-12T19:07:22.648Z,98056.66
2022-08-12T19:10:24.858Z,98060.50
2022-08-12T19:13:46.185Z,98055.09
2022-08-12T19:16:51.679Z,98059.94
2022-08-12T19:19:55.429Z,98048.56
2022-08-12T19:23:08.339Z,98051.81
2022-08-12T19:26:32.499Z,98050.91
2022-08-12T19:30:06.101Z,98059.53
2022-08-12T19:33:20.093Z,98058.94
2022-08-12T19:40:09.895Z,98054.94
2022-08-12T19:43:19.904Z,98050.94
2022-08-12T19:46:27.993Z,98055.44
2022-08-12T19:49:37.470Z,98052.56
2022-08-12T19:52:41.450Z,98064.56
2022-08-12T19:55:43.921Z,98062.03
2022-08-12T19:58:54.818Z,98059.28
2022-08-12T20:02:02.244Z,98055.97
2022-08-12T20:06:06.790Z,98058.91
2022-08-12T20:08:33.217Z,98049.16
2022-08-12T20:12:14.725Z,98051.59
2022-08-12T20:15:05.198Z,98060.44
2022-08-12T20:18:08.754Z,98063.06
2022-08-12T20:21:40.483Z,98058.38
2022-08-12T20:24:44.862Z,98064.13
2022-08-12T20:28:05.585Z,98064.81
2022-08-12T20:31:08.629Z,98064.34
2022-08-12T20:34:12.629Z,98060.16
2022-08-12T20:37:15.039Z,98061.88
2022-08-12T20:40:17.986Z,98065.25
2022-08-12T20:43:28.113Z,98055.81
2022-08-12T20:46:33.780Z,98062.44
2022-08-12T20:49:39.976Z,98053.84
2022-08-12T20:52:45.226Z,98057.97
2022-08-12T20:55:56.773Z,98036.69
2022-08-12T20:59:01.407Z,98048.59
2022-08-12T21:02:04.773Z,98045.03
2022-08-12T21:06:09.578Z,98054.56
2022-08-12T21:08:48.793Z,98050.66
2022-08-12T21:11:51.372Z,98052.34
2022-08-12T21:15:00.787Z,98053.38
2022-08-12T21:18:29.057Z,98056.22
2022-08-12T21:21:46.807Z,98058.69
2022-08-12T21:24:53.094Z,98057.28
2022-08-12T21:27:58.763Z,98055.03
2022-08-12T21:32:34.458Z,98059.13
2022-08-12T21:34:29.101Z,98057.28
2022-08-12T21:37:37.468Z,98057.06
2022-08-12T21:40:52.699Z,98065.66
2022-08-12T21:44:01.026Z,98066.47
2022-08-12T21:47:12.063Z,98061.56
2022-08-12T21:50:29.094Z,98059.13
2022-08-12T21:54:07.218Z,98056.25
2022-08-12T21:56:53.965Z,98058.31
2022-08-12T21:59:56.337Z,98057.03
2022-08-12T22:03:17.574Z,98063.78
2022-08-12T22:06:43.919Z,98055.78
2022-08-12T22:09:46.721Z,98044.72
2022-08-12T22:13:01.044Z,98047.78
2022-08-12T22:16:03.464Z,98052.44
2022-08-12T22:19:06.481Z,98058.16
2022-08-12T22:22:08.509Z,98045.72
2022-08-12T22:25:14.453Z,98051.25
2022-08-12T22:28:39.146Z,98038.16
2022-08-12T22:31:41.319Z,98042.63
2022-08-12T22:34:44.753Z,98037.75
2022-08-12T22:37:46.812Z,98043.88
2022-08-12T22:40:51.031Z,98034.06
2022-08-12T22:44:11.594Z,98026.50
2022-08-12T22:47:53.953Z,98024.25
2022-08-12T22:50:59.358Z,98021.16
2022-08-12T22:54:01.805Z,98030.38
2022-08-12T22:57:12.405Z,98025.06
2022-08-12T23:00:24.011Z,98023.03
2022-08-12T23:03:48.859Z,98016.03
2022-08-12T23:06:54.322Z,98015.84
2022-08-12T23:09:56.140Z,98016.00
2022-08-12T23:13:16.860Z,98013.91
2022-08-12T23:16:33.176Z,98007.53
2022-08-12T23:19:38.254Z,98000.38
2022-08-12T23:22:40.424Z,97992.59
2022-08-12T23:25:54.375Z,97998.75
2022-08-12T23:29:29.732Z,97989.94
2022-08-12T23:32:37.801Z,97979.94
2022-08-12T23:35:53.873Z,97986.69
2022-08-12T23:39:03.972Z,97981.75
2022-08-12T23:42:16.855Z,97979.91
2022-08-12T23:45:31.187Z,97971.31
2022-08-12T23:48:34.779Z,97966.56
2022-08-12T23:51:36.907Z,97967.19
2022-08-12T23:54:44.952Z,97965.16
2022-08-12T23:57:51.061Z,97962.25
